sensor_id;sensor_type;location;lat;lon;timestamp;temperature;humidity
23403;DHT22;11874;48.228;11.684;2022-07-01T00:01:55;21.60;99.90
23403;DHT22;11874;48.228;11.684;2022-07-01T00:04:24;21.60;99.90
23403;DHT22;11874;48.228;11.684;2022-07-01T00:06:54;21.50;99.90
23403;DHT22;11874;48.228;11.684;2022-07-01T00:09:22;21.50;99.90
23403;DHT22;11874;48.228;11.684;2022-07-01T00:11:50;21.60;99.90
23403;DHT22;11874;48.228;11.684;2022-07-01T00:14:18;21.50;99.90
23403;DHT22;11874;48.228;11.684;2022-07-01T00:16:46;21.50;99.90
23403;DHT22;11874;48.228;11.684;2022-07-01T00:19:14;21.40;99.90
23403;DHT22;11874;48.228;11.684;2022-07-01T00:21:43;21.40;99.90
23403;DHT22;11874;48.228;11.684;2022-07-01T00:24:11;21.40;99.90
23403;DHT22;11874;48.228;11.684;2022-07-01T00:26:39;21.30;99.90
23403;DHT22;11874;48.228;11.684;2022-07-01T00:29:07;20.10;99.90
23403;DHT22;11874;48.228;11.684;2022-07-01T00:31:35;21.40;99.90
23403;DHT22;11874;48.228;11.684;2022-07-01T00:34:03;21.40;99.90
23403;DHT22;11874;48.228;11.684;2022-07-01T00:36:31;21.30;99.90
23403;DHT22;11874;48.228;11.684;2022-07-01T00:39:00;21.30;99.90
23403;DHT22;11874;48.228;11.684;2022-07-01T00:41:28;21.30;99.90
23403;DHT22;11874;48.228;11.684;2022-07-01T00:43:56;21.30;99.90
23403;DHT22;11874;48.228;11.684;2022-07-01T00:46:25;21.30;99.90
23403;DHT22;11874;48.228;11.684;2022-07-01T00:48:55;21.30;99.90
23403;DHT22;11874;48.228;11.684;2022-07-01T00:51:24;21.30;99.90
23403;DHT22;11874;48.228;11.684;2022-07-01T00:53:52;21.30;99.90
23403;DHT22;11874;48.228;11.684;2022-07-01T00:56:22;21.40;99.90
23403;DHT22;11874;48.228;11.684;2022-07-01T00:58:50;21.30;99.90
23403;DHT22;11874;48.228;11.684;2022-07-01T01:01:18;21.30;99.90
23403;DHT22;11874;48.228;11.684;2022-07-01T01:03:48;21.30;99.90
23403;DHT22;11874;48.228;11.684;2022-07-01T01:06:17;21.20;99.90
23403;DHT22;11874;48.228;11.684;2022-07-01T01:08:45;21.20;99.90
23403;DHT22;11874;48.228;11.684;2022-07-01T01:11:15;21.20;99.90
23403;DHT22;11874;48.228;11.684;2022-07-01T01:13:45;21.20;99.90
23403;DHT22;11874;48.228;11.684;2022-07-01T01:16:17;21.20;99.90
23403;DHT22;11874;48.228;11.684;2022-07-01T01:18:46;21.20;99.90
23403;DHT22;11874;48.228;11.684;2022-07-01T01:21:16;21.20;99.90
23403;DHT22;11874;48.228;11.684;2022-07-01T01:23:44;21.10;99.90
23403;DHT22;11874;48.228;11.684;2022-07-01T01:26:16;21.20;99.90
23403;DHT22;11874;48.228;11.684;2022-07-01T01:28:44;21.20;99.90
23403;DHT22;11874;48.228;11.684;2022-07-01T01:31:13;21.20;99.90
23403;DHT22;11874;48.228;11.684;2022-07-01T01:33:41;21.10;99.90
23403;DHT22;11874;48.228;11.684;2022-07-01T01:36:09;21.10;99.90
23403;DHT22;11874;48.228;11.684;2022-07-01T01:38:38;21.10;99.90
23403;DHT22;11874;48.228;11.684;2022-07-01T01:41:06;21.00;99.90
23403;DHT22;11874;48.228;11.684;2022-07-01T01:43:36;21.00;99.90
23403;DHT22;11874;48.228;11.684;2022-07-01T01:46:04;21.00;99.90
23403;DHT22;11874;48.228;11.684;2022-07-01T01:48:32;20.90;99.90
23403;DHT22;11874;48.228;11.684;2022-07-01T01:50:59;20.90;99.90
23403;DHT22;11874;48.228;11.684;2022-07-01T01:53:27;20.80;99.90
23403;DHT22;11874;48.228;11.684;2022-07-01T01:55:57;20.80;99.90
23403;DHT22;11874;48.228;11.684;2022-07-01T01:58:24;20.80;99.90
23403;DHT22;11874;48.228;11.684;2022-07-01T02:00:52;20.90;99.90
23403;DHT22;11874;48.228;11.684;2022-07-01T02:03:20;20.80;99.90
23403;DHT22;11874;48.228;11.684;2022-07-01T02:05:48;20.80;99.90
23403;DHT22;11874;48.228;11.684;2022-07-01T02:08:17;20.70;99.90
23403;DHT22;11874;48.228;11.684;2022-07-01T02:10:44;20.80;99.90
23403;DHT22;11874;48.228;11.684;2022-07-01T02:13:14;20.80;99.90
23403;DHT22;11874;48.228;11.684;2022-07-01T02:15:42;20.80;99.90
23403;DHT22;11874;48.228;11.684;2022-07-01T02:18:09;20.70;99.90
23403;DHT22;11874;48.228;11.684;2022-07-01T02:20:37;20.70;99.90
23403;DHT22;11874;48.228;11.684;2022-07-01T02:23:05;20.70;99.90
23403;DHT22;11874;48.228;11.684;2022-07-01T02:25:33;20.70;99.90
23403;DHT22;11874;48.228;11.684;2022-07-01T02:28:01;20.60;99.90
23403;DHT22;11874;48.228;11.684;2022-07-01T02:30:30;20.70;99.90
23403;DHT22;11874;48.228;11.684;2022-07-01T02:33:02;20.60;99.90
23403;DHT22;11874;48.228;11.684;2022-07-01T02:35:30;20.60;99.90
23403;DHT22;11874;48.228;11.684;2022-07-01T02:37:58;20.60;99.90
23403;DHT22;11874;48.228;11.684;2022-07-01T02:40:26;20.60;99.90
23403;DHT22;11874;48.228;11.684;2022-07-01T02:42:54;20.70;99.90
23403;DHT22;11874;48.228;11.684;2022-07-01T02:45:22;20.60;99.90
23403;DHT22;11874;48.228;11.684;2022-07-01T02:47:52;20.70;99.90
23403;DHT22;11874;48.228;11.684;2022-07-01T02:50:20;20.70;99.90
23403;DHT22;11874;48.228;11.684;2022-07-01T02:52:54;20.70;99.90
23403;DHT22;11874;48.228;11.684;2022-07-01T02:55:22;20.70;99.90
23403;DHT22;11874;48.228;11.684;2022-07-01T02:57:50;20.60;99.90
23403;DHT22;11874;48.228;11.684;2022-07-01T03:00:19;20.70;99.90
23403;DHT22;11874;48.228;11.684;2022-07-01T03:02:47;20.70;99.90
23403;DHT22;11874;48.228;11.684;2022-07-01T03:05:17;20.70;99.90
23403;DHT22;11874;48.228;11.684;2022-07-01T03:07:45;20.70;99.90
23403;DHT22;11874;48.228;11.684;2022-07-01T03:10:13;20.70;99.90
23403;DHT22;11874;48.228;11.684;2022-07-01T03:12:41;20.60;99.90
23403;DHT22;11874;48.228;11.684;2022-07-01T03:15:10;20.60;99.90
23403;DHT22;11874;48.228;11.684;2022-07-01T03:17:40;20.60;99.90
23403;DHT22;11874;48.228;11.684;2022-07-01T03:20:10;20.50;99.90
23403;DHT22;11874;48.228;11.684;2022-07-01T03:22:41;20.60;99.90
23403;DHT22;11874;48.228;11.684;2022-07-01T03:25:09;20.50;99.90
23403;DHT22;11874;48.228;11.684;2022-07-01T03:27:37;20.50;99.90
23403;DHT22;11874;48.228;11.684;2022-07-01T03:30:07;20.50;99.90
23403;DHT22;11874;48.228;11.684;2022-07-01T03:32:34;20.50;99.90
23403;DHT22;11874;48.228;11.684;2022-07-01T03:35:03;20.50;99.90
23403;DHT22;11874;48.228;11.684;2022-07-01T03:37:54;20.50;99.90
23403;DHT22;11874;48.228;11.684;2022-07-01T03:40:22;20.50;99.90
23403;DHT22;11874;48.228;11.684;2022-07-01T03:42:50;20.50;99.90
23403;DHT22;11874;48.228;11.684;2022-07-01T03:45:18;20.50;99.90
23403;DHT22;11874;48.228;11.684;2022-07-01T03:47:46;20.50;99.90
23403;DHT22;11874;48.228;11.684;2022-07-01T03:50:14;20.50;99.90
23403;DHT22;11874;48.228;11.684;2022-07-01T03:52:42;20.50;99.90
23403;DHT22;11874;48.228;11.684;2022-07-01T03:55:12;20.60;99.90
23403;DHT22;11874;48.228;11.684;2022-07-01T03:57:39;20.60;99.90
23403;DHT22;11874;48.228;11.684;2022-07-01T04:00:08;20.50;99.90
23403;DHT22;11874;48.228;11.684;2022-07-01T04:02:36;20.50;99.90
23403;DHT22;11874;48.228;11.684;2022-07-01T04:05:04;20.60;99.90
23403;DHT22;11874;48.228;11.684;2022-07-01T04:07:32;20.50;99.90
23403;DHT22;11874;48.228;11.684;2022-07-01T04:10:02;20.50;99.90
23403;DHT22;11874;48.228;11.684;2022-07-01T04:12:32;20.50;99.90
23403;DHT22;11874;48.228;11.684;2022-07-01T04:15:00;20.50;99.90
23403;DHT22;11874;48.228;11.684;2022-07-01T04:17:27;20.50;99.90
23403;DHT22;11874;48.228;11.684;2022-07-01T04:19:55;20.50;99.90
23403;DHT22;11874;48.228;11.684;2022-07-01T04:22:23;20.60;99.90
23403;DHT22;11874;48.228;11.684;2022-07-01T04:24:59;20.50;99.90
23403;DHT22;11874;48.228;11.684;2022-07-01T04:27:27;20.50;99.90
23403;DHT22;11874;48.228;11.684;2022-07-01T04:29:56;20.50;99.90
23403;DHT22;11874;48.228;11.684;2022-07-01T04:32:24;20.50;99.90
23403;DHT22;11874;48.228;11.684;2022-07-01T04:34:52;20.50;99.90
23403;DHT22;11874;48.228;11.684;2022-07-01T04:37:20;20.50;99.90
23403;DHT22;11874;48.228;11.684;2022-07-01T04:39:48;20.50;99.90
23403;DHT22;11874;48.228;11.684;2022-07-01T04:42:16;20.50;99.90
23403;DHT22;11874;48.228;11.684;2022-07-01T04:44:44;20.50;99.90
23403;DHT22;11874;48.228;11.684;2022-07-01T04:47:14;20.50;99.90
23403;DHT22;11874;48.228;11.684;2022-07-01T04:49:42;20.50;99.90
23403;DHT22;11874;48.228;11.684;2022-07-01T04:52:10;20.60;99.90
23403;DHT22;11874;48.228;11.684;2022-07-01T04:54:38;20.50;99.90
23403;DHT22;11874;48.228;11.684;2022-07-01T04:57:06;20.60;99.90
23403;DHT22;11874;48.228;11.684;2022-07-01T04:59:34;20.50;99.90
23403;DHT22;11874;48.228;11.684;2022-07-01T05:02:03;20.50;99.90
23403;DHT22;11874;48.228;11.684;2022-07-01T05:04:39;20.50;99.90
23403;DHT22;11874;48.228;11.684;2022-07-01T05:07:08;20.60;99.90
23403;DHT22;11874;48.228;11.684;2022-07-01T05:09:54;20.50;99.90
23403;DHT22;11874;48.228;11.684;2022-07-01T05:12:22;20.60;99.90
23403;DHT22;11874;48.228;11.684;2022-07-01T05:14:50;20.60;99.90
23403;DHT22;11874;48.228;11.684;2022-07-01T05:17:18;20.50;99.90
23403;DHT22;11874;48.228;11.684;2022-07-01T05:19:47;20.60;99.90
23403;DHT22;11874;48.228;11.684;2022-07-01T05:22:33;20.60;99.90
23403;DHT22;11874;48.228;11.684;2022-07-01T05:25:00;20.60;99.90
23403;DHT22;11874;48.228;11.684;2022-07-01T05:27:28;20.50;99.90
23403;DHT22;11874;48.228;11.684;2022-07-01T05:29:56;20.60;99.90
23403;DHT22;11874;48.228;11.684;2022-07-01T05:32:32;20.70;99.90
23403;DHT22;11874;48.228;11.684;2022-07-01T05:35:01;20.60;99.90
23403;DHT22;11874;48.228;11.684;2022-07-01T05:37:29;20.60;99.90
23403;DHT22;11874;48.228;11.684;2022-07-01T05:39:57;20.60;99.90
23403;DHT22;11874;48.228;11.684;2022-07-01T05:42:25;20.60;99.90
23403;DHT22;11874;48.228;11.684;2022-07-01T05:44:52;20.70;99.90
23403;DHT22;11874;48.228;11.684;2022-07-01T05:47:20;20.60;99.90
23403;DHT22;11874;48.228;11.684;2022-07-01T05:49:48;20.60;99.90
23403;DHT22;11874;48.228;11.684;2022-07-01T05:52:17;20.60;99.90
23403;DHT22;11874;48.228;11.684;2022-07-01T05:54:45;20.80;99.90
23403;DHT22;11874;48.228;11.684;2022-07-01T05:57:13;20.70;99.90
23403;DHT22;11874;48.228;11.684;2022-07-01T05:59:41;20.70;99.90
23403;DHT22;11874;48.228;11.684;2022-07-01T06:02:09;20.80;99.90
23403;DHT22;11874;48.228;11.684;2022-07-01T06:04:37;20.70;99.90
23403;DHT22;11874;48.228;11.684;2022-07-01T06:07:05;20.70;99.90
23403;DHT22;11874;48.228;11.684;2022-07-01T06:09:35;20.70;99.90
23403;DHT22;11874;48.228;11.684;2022-07-01T06:12:03;20.70;99.90
23403;DHT22;11874;48.228;11.684;2022-07-01T06:14:31;20.70;99.90
23403;DHT22;11874;48.228;11.684;2022-07-01T06:16:59;20.70;99.90
23403;DHT22;11874;48.228;11.684;2022-07-01T06:19:27;20.70;99.90
23403;DHT22;11874;48.228;11.684;2022-07-01T06:21:55;20.70;99.90
23403;DHT22;11874;48.228;11.684;2022-07-01T06:24:23;20.60;99.90
23403;DHT22;11874;48.228;11.684;2022-07-01T06:26:53;20.60;99.90
23403;DHT22;11874;48.228;11.684;2022-07-01T06:29:20;20.60;99.90
23403;DHT22;11874;48.228;11.684;2022-07-01T06:31:48;20.70;99.90
23403;DHT22;11874;48.228;11.684;2022-07-01T06:34:16;20.70;99.90
23403;DHT22;11874;48.228;11.684;2022-07-01T06:36:44;20.80;99.90
23403;DHT22;11874;48.228;11.684;2022-07-01T06:39:12;20.80;99.90
23403;DHT22;11874;48.228;11.684;2022-07-01T06:41:40;20.80;99.90
23403;DHT22;11874;48.228;11.684;2022-07-01T06:44:09;20.80;99.90
23403;DHT22;11874;48.228;11.684;2022-07-01T06:46:37;20.60;99.90
23403;DHT22;11874;48.228;11.684;2022-07-01T06:49:05;20.70;99.90
23403;DHT22;11874;48.228;11.684;2022-07-01T06:51:33;20.70;99.90
23403;DHT22;11874;48.228;11.684;2022-07-01T06:54:01;20.80;99.90
23403;DHT22;11874;48.228;11.684;2022-07-01T06:56:29;20.60;99.90
23403;DHT22;11874;48.228;11.684;2022-07-01T06:58:57;20.60;99.90
23403;DHT22;11874;48.228;11.684;2022-07-01T07:01:26;20.60;99.90
23403;DHT22;11874;48.228;11.684;2022-07-01T07:03:54;20.60;99.90
23403;DHT22;11874;48.228;11.684;2022-07-01T07:06:22;20.50;99.90
23403;DHT22;11874;48.228;11.684;2022-07-01T07:08:50;20.70;99.90
23403;DHT22;11874;48.228;11.684;2022-07-01T07:11:18;20.70;99.90
23403;DHT22;11874;48.228;11.684;2022-07-01T07:13:46;21.10;99.90
23403;DHT22;11874;48.228;11.684;2022-07-01T07:16:14;20.70;99.90
23403;DHT22;11874;48.228;11.684;2022-07-01T07:18:49;20.80;99.90
23403;DHT22;11874;48.228;11.684;2022-07-01T07:21:17;20.80;99.90
23403;DHT22;11874;48.228;11.684;2022-07-01T07:23:45;21.50;99.90
23403;DHT22;11874;48.228;11.684;2022-07-01T07:26:13;21.00;99.90
23403;DHT22;11874;48.228;11.684;2022-07-01T07:28:41;21.20;99.90
23403;DHT22;11874;48.228;11.684;2022-07-01T07:31:10;21.00;99.90
23403;DHT22;11874;48.228;11.684;2022-07-01T07:33:38;21.00;99.90
23403;DHT22;11874;48.228;11.684;2022-07-01T07:36:07;21.00;99.90
23403;DHT22;11874;48.228;11.684;2022-07-01T07:38:36;21.00;99.90
23403;DHT22;11874;48.228;11.684;2022-07-01T07:41:05;20.90;99.90
23403;DHT22;11874;48.228;11.684;2022-07-01T07:43:34;21.00;99.90
23403;DHT22;11874;48.228;11.684;2022-07-01T07:46:03;20.80;99.90
23403;DHT22;11874;48.228;11.684;2022-07-01T07:48:31;20.70;99.90
23403;DHT22;11874;48.228;11.684;2022-07-01T07:50:59;20.70;99.90
23403;DHT22;11874;48.228;11.684;2022-07-01T07:53:28;20.60;99.90
23403;DHT22;11874;48.228;11.684;2022-07-01T07:55:56;20.50;99.90
23403;DHT22;11874;48.228;11.684;2022-07-01T07:58:24;20.40;99.90
23403;DHT22;11874;48.228;11.684;2022-07-01T08:00:52;20.20;99.90
23403;DHT22;11874;48.228;11.684;2022-07-01T08:03:20;20.10;99.90
23403;DHT22;11874;48.228;11.684;2022-07-01T08:05:48;20.10;99.90
23403;DHT22;11874;48.228;11.684;2022-07-01T08:08:16;20.20;99.90
23403;DHT22;11874;48.228;11.684;2022-07-01T08:10:50;20.10;99.90
23403;DHT22;11874;48.228;11.684;2022-07-01T08:13:18;20.00;99.90
23403;DHT22;11874;48.228;11.684;2022-07-01T08:15:46;20.60;99.90
23403;DHT22;11874;48.228;11.684;2022-07-01T08:18:14;20.00;99.90
23403;DHT22;11874;48.228;11.684;2022-07-01T08:20:42;19.90;99.90
23403;DHT22;11874;48.228;11.684;2022-07-01T08:23:10;20.30;99.90
23403;DHT22;11874;48.228;11.684;2022-07-01T08:25:37;19.90;99.90
23403;DHT22;11874;48.228;11.684;2022-07-01T08:28:07;19.90;99.90
23403;DHT22;11874;48.228;11.684;2022-07-01T08:30:35;20.20;99.90
23403;DHT22;11874;48.228;11.684;2022-07-01T08:33:02;19.60;99.90
23403;DHT22;11874;48.228;11.684;2022-07-01T08:35:30;19.50;99.90
23403;DHT22;11874;48.228;11.684;2022-07-01T08:37:59;19.30;99.90
23403;DHT22;11874;48.228;11.684;2022-07-01T08:40:27;19.30;99.90
23403;DHT22;11874;48.228;11.684;2022-07-01T08:42:56;19.20;99.90
23403;DHT22;11874;48.228;11.684;2022-07-01T08:45:31;19.20;99.90
23403;DHT22;11874;48.228;11.684;2022-07-01T08:48:00;19.90;99.90
23403;DHT22;11874;48.228;11.684;2022-07-01T08:50:32;19.30;99.90
23403;DHT22;11874;48.228;11.684;2022-07-01T08:53:01;20.20;99.90
23403;DHT22;11874;48.228;11.684;2022-07-01T08:55:29;18.70;99.90
23403;DHT22;11874;48.228;11.684;2022-07-01T08:57:58;19.00;99.90
23403;DHT22;11874;48.228;11.684;2022-07-01T09:00:31;18.90;99.90
23403;DHT22;11874;48.228;11.684;2022-07-01T09:03:01;18.80;99.90
23403;DHT22;11874;48.228;11.684;2022-07-01T09:05:31;18.80;99.90
23403;DHT22;11874;48.228;11.684;2022-07-01T09:08:01;19.30;99.90
23403;DHT22;11874;48.228;11.684;2022-07-01T09:10:30;18.70;99.90
23403;DHT22;11874;48.228;11.684;2022-07-01T09:13:04;20.10;99.90
23403;DHT22;11874;48.228;11.684;2022-07-01T09:15:34;18.80;99.90
23403;DHT22;11874;48.228;11.684;2022-07-01T09:18:06;18.70;99.90
23403;DHT22;11874;48.228;11.684;2022-07-01T09:20:39;18.50;99.90
23403;DHT22;11874;48.228;11.684;2022-07-01T09:23:08;18.50;99.90
23403;DHT22;11874;48.228;11.684;2022-07-01T09:25:39;19.30;99.90
23403;DHT22;11874;48.228;11.684;2022-07-01T09:28:21;18.60;99.90
23403;DHT22;11874;48.228;11.684;2022-07-01T09:30:51;18.60;99.90
23403;DHT22;11874;48.228;11.684;2022-07-01T09:33:21;18.70;99.90
23403;DHT22;11874;48.228;11.684;2022-07-01T09:35:51;18.60;99.90
23403;DHT22;11874;48.228;11.684;2022-07-01T09:38:20;17.50;99.90
23403;DHT22;11874;48.228;11.684;2022-07-01T09:40:59;18.70;99.90
23403;DHT22;11874;48.228;11.684;2022-07-01T09:43:28;18.70;99.90
23403;DHT22;11874;48.228;11.684;2022-07-01T09:45:59;18.60;99.90
23403;DHT22;11874;48.228;11.684;2022-07-01T09:48:42;18.60;99.90
23403;DHT22;11874;48.228;11.684;2022-07-01T09:51:11;18.60;99.90
23403;DHT22;11874;48.228;11.684;2022-07-01T09:53:41;19.50;99.90
23403;DHT22;11874;48.228;11.684;2022-07-01T09:56:09;19.20;99.90
23403;DHT22;11874;48.228;11.684;2022-07-01T09:58:38;18.50;99.90
23403;DHT22;11874;48.228;11.684;2022-07-01T10:01:12;18.50;99.90
23403;DHT22;11874;48.228;11.684;2022-07-01T10:03:41;18.60;99.90
23403;DHT22;11874;48.228;11.684;2022-07-01T10:06:24;18.60;99.90
23403;DHT22;11874;48.228;11.684;2022-07-01T10:09:05;18.70;99.90
23403;DHT22;11874;48.228;11.684;2022-07-01T10:11:49;18.70;99.90
23403;DHT22;11874;48.228;11.684;2022-07-01T10:14:19;18.70;99.90
23403;DHT22;11874;48.228;11.684;2022-07-01T10:16:50;18.60;99.90
23403;DHT22;11874;48.228;11.684;2022-07-01T10:19:28;18.60;99.90
23403;DHT22;11874;48.228;11.684;2022-07-01T10:22:00;18.50;99.90
23403;DHT22;11874;48.228;11.684;2022-07-01T10:24:28;18.50;99.90
23403;DHT22;11874;48.228;11.684;2022-07-01T10:26:59;18.50;99.90
23403;DHT22;11874;48.228;11.684;2022-07-01T10:29:30;18.50;99.90
23403;DHT22;11874;48.228;11.684;2022-07-01T10:32:07;18.60;99.90
23403;DHT22;11874;48.228;11.684;2022-07-01T10:34:38;18.60;99.90
23403;DHT22;11874;48.228;11.684;2022-07-01T10:37:08;18.60;99.90
23403;DHT22;11874;48.228;11.684;2022-07-01T10:39:54;18.60;99.90
23403;DHT22;11874;48.228;11.684;2022-07-01T10:42:28;18.70;99.90
23403;DHT22;11874;48.228;11.684;2022-07-01T10:45:00;18.70;99.90
23403;DHT22;11874;48.228;11.684;2022-07-01T10:47:30;18.60;99.90
23403;DHT22;11874;48.228;11.684;2022-07-01T10:50:03;18.70;99.90
23403;DHT22;11874;48.228;11.684;2022-07-01T10:52:31;18.70;99.90
23403;DHT22;11874;48.228;11.684;2022-07-01T10:55:01;18.70;99.90
23403;DHT22;11874;48.228;11.684;2022-07-01T10:57:45;18.60;99.90
23403;DHT22;11874;48.228;11.684;2022-07-01T11:00:33;18.60;99.90
23403;DHT22;11874;48.228;11.684;2022-07-01T11:03:21;18.40;99.90
23403;DHT22;11874;48.228;11.684;2022-07-01T11:05:52;18.80;99.90
23403;DHT22;11874;48.228;11.684;2022-07-01T11:08:23;18.60;99.90
23403;DHT22;11874;48.228;11.684;2022-07-01T11:10:58;18.50;99.90
23403;DHT22;11874;48.228;11.684;2022-07-01T11:13:29;18.50;99.90
23403;DHT22;11874;48.228;11.684;2022-07-01T11:15:57;18.60;99.90
23403;DHT22;11874;48.228;11.684;2022-07-01T11:18:26;18.60;99.90
23403;DHT22;11874;48.228;11.684;2022-07-01T11:21:03;18.60;99.90
23403;DHT22;11874;48.228;11.684;2022-07-01T11:23:31;18.70;99.90
23403;DHT22;11874;48.228;11.684;2022-07-01T11:26:06;18.60;99.90
23403;DHT22;11874;48.228;11.684;2022-07-01T11:28:40;18.60;99.90
23403;DHT22;11874;48.228;11.684;2022-07-01T11:31:08;18.60;99.90
23403;DHT22;11874;48.228;11.684;2022-07-01T11:33:37;18.70;99.90
23403;DHT22;11874;48.228;11.684;2022-07-01T11:36:06;18.60;99.90
23403;DHT22;11874;48.228;11.684;2022-07-01T11:38:52;18.60;99.90
23403;DHT22;11874;48.228;11.684;2022-07-01T11:41:45;18.60;99.90
23403;DHT22;11874;48.228;11.684;2022-07-01T11:44:12;19.50;99.90
23403;DHT22;11874;48.228;11.684;2022-07-01T11:46:49;18.50;99.90
23403;DHT22;11874;48.228;11.684;2022-07-01T11:49:18;18.50;99.90
23403;DHT22;11874;48.228;11.684;2022-07-01T11:51:55;18.50;99.90
23403;DHT22;11874;48.228;11.684;2022-07-01T11:54:23;18.60;99.90
23403;DHT22;11874;48.228;11.684;2022-07-01T11:56:51;19.30;99.90
23403;DHT22;11874;48.228;11.684;2022-07-01T11:59:20;18.50;99.90
23403;DHT22;11874;48.228;11.684;2022-07-01T12:01:52;18.50;99.90
23403;DHT22;11874;48.228;11.684;2022-07-01T12:04:22;18.60;99.90
23403;DHT22;11874;48.228;11.684;2022-07-01T12:06:50;19.10;99.90
23403;DHT22;11874;48.228;11.684;2022-07-01T12:09:19;19.70;99.90
23403;DHT22;11874;48.228;11.684;2022-07-01T12:11:49;19.10;99.90
23403;DHT22;11874;48.228;11.684;2022-07-01T12:14:21;19.40;99.90
23403;DHT22;11874;48.228;11.684;2022-07-01T12:16:52;18.50;99.90
23403;DHT22;11874;48.228;11.684;2022-07-01T12:19:26;18.50;99.90
23403;DHT22;11874;48.228;11.684;2022-07-01T12:21:57;18.60;99.90
23403;DHT22;11874;48.228;11.684;2022-07-01T12:24:26;19.10;99.90
23403;DHT22;11874;48.228;11.684;2022-07-01T12:27:03;19.40;99.90
23403;DHT22;11874;48.228;11.684;2022-07-01T12:29:48;18.80;99.90
23403;DHT22;11874;48.228;11.684;2022-07-01T12:32:18;18.90;99.90
23403;DHT22;11874;48.228;11.684;2022-07-01T12:34:52;19.60;99.90
23403;DHT22;11874;48.228;11.684;2022-07-01T12:37:28;18.80;99.90
23403;DHT22;11874;48.228;11.684;2022-07-01T12:39:58;19.20;99.90
23403;DHT22;11874;48.228;11.684;2022-07-01T12:42:28;18.60;99.90
23403;DHT22;11874;48.228;11.684;2022-07-01T12:44:58;18.70;99.90
23403;DHT22;11874;48.228;11.684;2022-07-01T12:47:27;18.60;99.90
23403;DHT22;11874;48.228;11.684;2022-07-01T12:50:16;18.60;99.90
23403;DHT22;11874;48.228;11.684;2022-07-01T12:52:57;18.50;99.90
23403;DHT22;11874;48.228;11.684;2022-07-01T12:55:25;18.50;99.90
23403;DHT22;11874;48.228;11.684;2022-07-01T12:57:55;18.40;99.90
23403;DHT22;11874;48.228;11.684;2022-07-01T13:00:26;18.40;99.90
23403;DHT22;11874;48.228;11.684;2022-07-01T13:02:56;19.60;99.90
23403;DHT22;11874;48.228;11.684;2022-07-01T13:05:26;18.30;99.90
23403;DHT22;11874;48.228;11.684;2022-07-01T13:07:54;18.30;99.90
23403;DHT22;11874;48.228;11.684;2022-07-01T13:10:22;18.20;99.90
23403;DHT22;11874;48.228;11.684;2022-07-01T13:12:50;18.70;99.90
23403;DHT22;11874;48.228;11.684;2022-07-01T13:15:19;18.10;99.90
23403;DHT22;11874;48.228;11.684;2022-07-01T13:17:47;18.10;99.90
23403;DHT22;11874;48.228;11.684;2022-07-01T13:20:16;18.10;99.90
23403;DHT22;11874;48.228;11.684;2022-07-01T13:22:46;18.50;99.90
23403;DHT22;11874;48.228;11.684;2022-07-01T13:25:14;18.00;99.90
23403;DHT22;11874;48.228;11.684;2022-07-01T13:27:42;18.10;99.90
23403;DHT22;11874;48.228;11.684;2022-07-01T13:30:12;19.70;99.90
23403;DHT22;11874;48.228;11.684;2022-07-01T13:32:40;18.10;99.90
23403;DHT22;11874;48.228;11.684;2022-07-01T13:35:09;18.10;99.90
23403;DHT22;11874;48.228;11.684;2022-07-01T13:37:38;18.10;99.90
23403;DHT22;11874;48.228;11.684;2022-07-01T13:40:08;18.10;99.90
23403;DHT22;11874;48.228;11.684;2022-07-01T13:42:36;18.10;99.90
23403;DHT22;11874;48.228;11.684;2022-07-01T13:45:05;18.00;99.90
23403;DHT22;11874;48.228;11.684;2022-07-01T13:47:33;18.00;99.90
23403;DHT22;11874;48.228;11.684;2022-07-01T13:50:02;19.50;99.90
23403;DHT22;11874;48.228;11.684;2022-07-01T13:52:29;18.00;99.90
23403;DHT22;11874;48.228;11.684;2022-07-01T13:54:58;18.10;99.90
23403;DHT22;11874;48.228;11.684;2022-07-01T13:57:27;18.10;99.90
23403;DHT22;11874;48.228;11.684;2022-07-01T13:59:55;18.20;99.90
23403;DHT22;11874;48.228;11.684;2022-07-01T14:02:24;18.20;99.90
23403;DHT22;11874;48.228;11.684;2022-07-01T14:04:52;18.10;99.90
23403;DHT22;11874;48.228;11.684;2022-07-01T14:07:19;18.10;99.90
23403;DHT22;11874;48.228;11.684;2022-07-01T14:09:47;18.00;99.90
23403;DHT22;11874;48.228;11.684;2022-07-01T14:12:15;18.10;99.90
23403;DHT22;11874;48.228;11.684;2022-07-01T14:14:55;18.80;99.90
23403;DHT22;11874;48.228;11.684;2022-07-01T14:17:23;18.00;99.90
23403;DHT22;11874;48.228;11.684;2022-07-01T14:19:51;18.00;99.90
23403;DHT22;11874;48.228;11.684;2022-07-01T14:22:19;18.00;99.90
23403;DHT22;11874;48.228;11.684;2022-07-01T14:24:47;18.00;99.90
23403;DHT22;11874;48.228;11.684;2022-07-01T14:27:15;18.00;99.90
23403;DHT22;11874;48.228;11.684;2022-07-01T14:29:43;18.00;99.90
23403;DHT22;11874;48.228;11.684;2022-07-01T14:32:12;18.00;99.90
23403;DHT22;11874;48.228;11.684;2022-07-01T14:34:40;18.00;99.90
23403;DHT22;11874;48.228;11.684;2022-07-01T14:37:08;17.90;99.90
23403;DHT22;11874;48.228;11.684;2022-07-01T14:39:36;17.90;99.90
23403;DHT22;11874;48.228;11.684;2022-07-01T14:42:05;18.00;99.90
23403;DHT22;11874;48.228;11.684;2022-07-01T14:44:33;17.90;99.90
23403;DHT22;11874;48.228;11.684;2022-07-01T14:47:01;17.90;99.90
23403;DHT22;11874;48.228;11.684;2022-07-01T14:49:30;17.90;99.90
23403;DHT22;11874;48.228;11.684;2022-07-01T14:51:59;18.00;99.90
23403;DHT22;11874;48.228;11.684;2022-07-01T14:54:27;18.00;99.90
23403;DHT22;11874;48.228;11.684;2022-07-01T14:56:55;18.00;99.90
23403;DHT22;11874;48.228;11.684;2022-07-01T14:59:23;18.00;99.90
23403;DHT22;11874;48.228;11.684;2022-07-01T15:01:51;18.10;99.90
23403;DHT22;11874;48.228;11.684;2022-07-01T15:04:21;18.10;99.90
23403;DHT22;11874;48.228;11.684;2022-07-01T15:06:51;18.20;99.90
23403;DHT22;11874;48.228;11.684;2022-07-01T15:09:19;18.20;99.90
23403;DHT22;11874;48.228;11.684;2022-07-01T15:11:48;18.40;99.90
23403;DHT22;11874;48.228;11.684;2022-07-01T15:14:19;18.30;99.90
23403;DHT22;11874;48.228;11.684;2022-07-01T15:16:47;18.30;99.90
23403;DHT22;11874;48.228;11.684;2022-07-01T15:19:16;18.30;99.90
23403;DHT22;11874;48.228;11.684;2022-07-01T15:21:43;18.40;99.90
23403;DHT22;11874;48.228;11.684;2022-07-01T15:24:19;18.40;99.90
23403;DHT22;11874;48.228;11.684;2022-07-01T15:26:47;18.50;99.90
23403;DHT22;11874;48.228;11.684;2022-07-01T15:29:15;18.50;99.90
23403;DHT22;11874;48.228;11.684;2022-07-01T15:31:43;18.40;99.90